Time;durP1;ratioP1;P1;durP2;ratioP2;P2;SDS_P1;SDS_P2;PMS_P1;PMS_P2;Temp;Humidity;BMP_temperature;BMP_pressure;BME280_temperature;BME280_humidity;BME280_pressure;Samples;Min_cycle;Max_cycle;Signal;HPM_P1;HPM_P2
2023/02/25 00:01:14;;;;;;;4.55;1.08;;;3.20;91.40;;;;;;5003224;28;20040;-76
2023/02/25 00:03:41;;;;;;;3.35;0.80;;;3.20;91.60;;;;;;5020262;28;20026;-76
2023/02/25 00:06:09;;;;;;;3.15;0.82;;;3.20;91.30;;;;;;5000774;28;20064;-76
2023/02/25 00:08:35;;;;;;;4.07;0.88;;;3.20;90.80;;;;;;5021127;28;20104;-76
2023/02/25 00:11:06;;;;;;;5.07;1.08;;;3.20;90.30;;;;;;4997440;28;20140;-76
2023/02/25 00:13:32;;;;;;;3.47;0.90;;;3.10;90.80;;;;;;5019801;28;20046;-76
2023/02/25 00:15:58;;;;;;;5.18;0.57;;;3.10;91.10;;;;;;5019246;28;20106;-76
2023/02/25 00:18:27;;;;;;;2.72;0.60;;;3.20;89.90;;;;;;5019954;28;20075;-76
2023/02/25 00:20:53;;;;;;;1.67;0.65;;;3.10;90.20;;;;;;5021335;28;20048;-76
2023/02/25 00:23:19;;;;;;;2.95;0.82;;;3.20;89.80;;;;;;5007975;28;20037;-76
2023/02/25 00:25:45;;;;;;;5.00;1.00;;;3.20;89.60;;;;;;5016914;28;20032;-76
2023/02/25 00:28:11;;;;;;;2.90;0.65;;;3.10;90.30;;;;;;5023163;28;20097;-76
2023/02/25 00:30:37;;;;;;;4.57;0.60;;;3.10;90.00;;;;;;5034644;28;20089;-76
2023/02/25 00:33:05;;;;;;;2.33;0.60;;;3.10;90.20;;;;;;5039743;28;20033;-76
2023/02/25 00:35:31;;;;;;;4.47;0.70;;;3.10;90.50;;;;;;5039787;28;20164;-76
2023/02/25 00:37:56;;;;;;;3.13;0.88;;;3.10;90.00;;;;;;5038391;28;20064;-76
2023/02/25 00:40:22;;;;;;;2.63;0.70;;;3.10;90.80;;;;;;5036562;28;20021;-76
2023/02/25 00:42:48;;;;;;;1.92;0.77;;;3.10;90.50;;;;;;5041707;28;20033;-75
2023/02/25 00:45:14;;;;;;;3.80;0.98;;;3.10;90.70;;;;;;5050154;28;20117;-76
2023/02/25 00:47:39;;;;;;;5.47;0.98;;;3.10;90.90;;;;;;5041053;28;20037;-76
2023/02/25 00:50:08;;;;;;;2.20;0.85;;;3.10;91.70;;;;;;5036276;28;20033;-76
2023/02/25 00:52:34;;;;;;;5.03;0.93;;;3.10;91.80;;;;;;5038049;28;20489;-76
2023/02/25 00:55:00;;;;;;;3.38;0.73;;;3.10;92.00;;;;;;5047218;28;20034;-76
2023/02/25 00:57:26;;;;;;;4.22;0.85;;;3.10;91.90;;;;;;5045314;28;20342;-76
2023/02/25 00:59:51;;;;;;;2.53;0.90;;;3.10;92.10;;;;;;5063358;28;20033;-76
2023/02/25 01:02:16;;;;;;;8.32;1.13;;;3.10;92.30;;;;;;5063374;28;20025;-76
2023/02/25 01:04:43;;;;;;;4.78;1.13;;;3.10;92.00;;;;;;5051400;28;20037;-76
2023/02/25 01:07:10;;;;;;;4.60;1.20;;;3.10;92.40;;;;;;5051977;28;20059;-76
2023/02/25 01:09:35;;;;;;;7.22;1.10;;;3.10;92.40;;;;;;5058774;28;20036;-76
2023/02/25 01:12:01;;;;;;;5.47;1.20;;;3.00;92.60;;;;;;5027747;28;20600;-76
2023/02/25 01:14:26;;;;;;;8.68;1.20;;;3.00;93.00;;;;;;5062824;28;20044;-76
2023/02/25 01:16:56;;;;;;;8.40;1.25;;;3.00;92.80;;;;;;5057763;28;20033;-76
2023/02/25 01:19:23;;;;;;;6.38;1.30;;;3.00;93.00;;;;;;5043113;28;20037;-76
2023/02/25 01:21:52;;;;;;;3.65;1.10;;;3.00;93.00;;;;;;5050943;28;20043;-76
2023/02/25 01:24:21;;;;;;;7.15;0.90;;;2.90;93.20;;;;;;5041659;28;20029;-76
2023/02/25 01:26:49;;;;;;;2.60;1.00;;;3.00;93.00;;;;;;5042649;28;20040;-76
2023/02/25 01:29:17;;;;;;;3.25;1.02;;;3.00;92.50;;;;;;5003285;28;1006454;-76
2023/02/25 01:31:43;;;;;;;3.22;1.13;;;3.10;92.40;;;;;;5025164;28;20030;-76
2023/02/25 01:34:12;;;;;;;7.00;1.25;;;3.10;92.50;;;;;;5027324;28;20034;-76
2023/02/25 01:36:38;;;;;;;6.03;1.50;;;3.10;92.80;;;;;;5021240;28;20049;-76
2023/02/25 01:39:04;;;;;;;5.28;1.58;;;3.00;92.90;;;;;;5026857;28;20030;-76
2023/02/25 01:41:32;;;;;;;6.00;1.40;;;3.00;92.50;;;;;;5017544;28;20582;-76
2023/02/25 01:44:15;;;;;;;5.47;1.30;;;3.00;92.70;;;;;;5025844;28;20014;-76
2023/02/25 01:46:42;;;;;;;3.67;1.20;;;3.00;92.60;;;;;;5006589;28;20060;-76
2023/02/25 01:49:22;;;;;;;6.70;1.48;;;3.00;92.60;;;;;;5020331;28;20033;-75
2023/02/25 01:51:55;;;;;;;3.67;1.17;;;3.00;92.50;;;;;;5015136;28;20036;-76
2023/02/25 01:54:20;;;;;;;6.13;1.08;;;3.00;92.10;;;;;;5019767;28;20101;-76
2023/02/25 01:56:51;;;;;;;4.68;0.90;;;2.90;92.00;;;;;;5020912;28;20050;-76
2023/02/25 01:59:19;;;;;;;4.22;0.80;;;2.90;92.00;;;;;;5026788;28;20032;-76
2023/02/25 02:01:45;;;;;;;2.25;0.90;;;2.90;92.30;;;;;;5022233;28;20068;-76
2023/02/25 02:04:14;;;;;;;1.88;0.65;;;2.90;91.20;;;;;;5027688;28;20072;-76
2023/02/25 02:06:42;;;;;;;1.00;0.68;;;2.90;91.50;;;;;;5025650;28;22113;-76
2023/02/25 02:09:12;;;;;;;2.70;0.70;;;2.80;91.20;;;;;;5019855;28;20018;-76
2023/02/25 02:11:38;;;;;;;3.43;0.70;;;2.80;90.70;;;;;;5026331;28;20036;-76
2023/02/25 02:14:06;;;;;;;2.05;0.80;;;2.80;90.20;;;;;;5024681;28;20172;-75
2023/02/25 02:17:05;;;;;;;1.73;0.77;;;2.80;90.40;;;;;;5021825;28;20062;-76
2023/02/25 02:19:31;;;;;;;3.00;0.90;;;2.80;89.30;;;;;;5024858;28;20033;-76
2023/02/25 02:22:29;;;;;;;3.83;0.80;;;2.80;89.40;;;;;;5026815;28;20026;-76
2023/02/25 02:25:32;;;;;;;2.17;0.90;;;2.80;89.20;;;;;;5020135;28;20026;-76
2023/02/25 02:28:31;;;;;;;2.22;0.68;;;2.80;89.20;;;;;;5026087;28;20033;-76
2023/02/25 02:31:22;;;;;;;3.13;0.90;;;2.80;89.30;;;;;;5015715;28;20033;-76
2023/02/25 02:33:53;;;;;;;1.50;0.70;;;2.80;89.50;;;;;;5027059;28;20042;-76
2023/02/25 02:36:39;;;;;;;1.88;0.70;;;2.70;89.40;;;;;;5026679;28;20165;-76
2023/02/25 02:39:17;;;;;;;4.60;0.90;;;2.70;90.10;;;;;;5020555;28;20033;-76
2023/02/25 02:41:53;;;;;;;4.88;1.05;;;2.70;89.40;;;;;;5028024;28;20025;-76
2023/02/25 02:44:39;;;;;;;3.10;0.75;;;2.70;89.60;;;;;;5025726;28;20030;-76
2023/02/25 02:47:11;;;;;;;5.18;0.90;;;2.70;89.50;;;;;;5026406;28;20022;-76
2023/02/25 02:49:46;;;;;;;4.50;0.98;;;2.70;89.50;;;;;;5022841;28;20061;-76
2023/02/25 02:52:22;;;;;;;1.13;0.70;;;2.60;89.50;;;;;;5017818;28;20058;-77
2023/02/25 02:54:53;;;;;;;5.97;0.93;;;2.60;90.20;;;;;;5030099;28;20030;-76
2023/02/25 02:57:20;;;;;;;3.78;0.85;;;2.50;89.90;;;;;;5018257;28;20034;-76
2023/02/25 02:59:52;;;;;;;4.18;1.05;;;2.50;89.30;;;;;;5019730;28;20387;-76
2023/02/25 03:02:27;;;;;;;4.75;1.17;;;2.50;90.70;;;;;;5022581;28;20093;-76
2023/02/25 03:05:01;;;;;;;3.58;1.00;;;2.50;91.00;;;;;;5025405;28;20022;-76
2023/02/25 03:07:28;;;;;;;3.35;1.10;;;2.50;90.60;;;;;;5023446;28;20022;-76
2023/02/25 03:09:58;;;;;;;5.47;1.02;;;2.50;90.30;;;;;;5026394;28;20030;-76
2023/02/25 03:12:24;;;;;;;2.92;0.90;;;2.50;90.30;;;;;;5027634;28;20038;-75
2023/02/25 03:14:49;;;;;;;3.50;0.90;;;2.40;89.60;;;;;;5028989;28;20036;-75
2023/02/25 03:17:22;;;;;;;4.53;0.90;;;2.40;89.60;;;;;;5003063;28;20025;-76
2023/02/25 03:20:23;;;;;;;1.85;0.60;;;2.30;89.30;;;;;;5013806;28;20034;-75
2023/02/25 03:22:52;;;;;;;;;;;2.30;89.40;;;;;;4979342;28;20501;-76
2023/02/25 03:25:25;;;;;;;4.57;1.05;;;2.30;89.80;;;;;;5019209;28;21371;-76
2023/02/25 03:27:54;;;;;;;2.17;0.90;;;2.30;90.40;;;;;;5016048;28;20034;-76
2023/02/25 03:31:08;;;;;;;4.18;0.98;;;2.30;90.70;;;;;;5032427;28;20038;-76
2023/02/25 03:33:46;;;;;;;3.10;0.90;;;2.30;91.10;;;;;;4997199;28;20156;-76
2023/02/25 03:36:17;;;;;;;5.53;1.20;;;2.30;91.50;;;;;;5039716;28;20041;-76
2023/02/25 03:38:48;;;;;;;4.20;1.50;;;2.30;91.80;;;;;;5040524;28;20030;-76
2023/02/25 03:41:17;;;;;;;5.60;1.33;;;2.30;91.90;;;;;;5035457;28;20490;-76
2023/02/25 03:43:55;;;;;;;3.75;1.08;;;2.30;92.30;;;;;;5037985;28;20029;-76
2023/02/25 03:46:21;;;;;;;4.38;1.00;;;2.30;92.70;;;;;;5036280;28;20033;-76
2023/02/25 03:48:49;;;;;;;3.20;1.20;;;2.30;92.30;;;;;;5042088;28;20027;-76
2023/02/25 03:51:19;;;;;;;5.68;1.30;;;2.20;91.20;;;;;;5041318;28;20040;-76
2023/02/25 03:53:44;;;;;;;2.15;1.02;;;2.20;91.40;;;;;;5039696;28;20030;-76
2023/02/25 03:56:10;;;;;;;3.00;1.30;;;2.20;91.10;;;;;;5032890;28;20030;-76
2023/02/25 03:58:38;;;;;;;2.10;1.00;;;2.20;90.00;;;;;;5035798;28;20029;-76
2023/02/25 04:01:13;;;;;;;1.27;0.70;;;2.20;90.20;;;;;;5047970;28;20021;-76
2023/02/25 04:03:38;;;;;;;3.47;1.02;;;2.10;90.30;;;;;;5047930;28;20467;-76
2023/02/25 04:06:04;;;;;;;3.08;1.00;;;2.10;90.20;;;;;;5024522;28;20030;-76
2023/02/25 04:08:30;;;;;;;2.38;1.13;;;2.10;90.20;;;;;;5041302;28;20390;-76
2023/02/25 04:10:55;;;;;;;4.60;1.08;;;2.10;89.90;;;;;;5038986;28;20037;-76
2023/02/25 04:13:21;;;;;;;5.80;1.35;;;2.10;89.70;;;;;;5020701;28;20485;-76
2023/02/25 04:15:48;;;;;;;4.88;1.42;;;2.10;90.00;;;;;;5037514;28;20021;-76
2023/02/25 04:18:14;;;;;;;4.78;1.10;;;2.00;89.30;;;;;;5040485;28;20085;-76
2023/02/25 04:20:41;;;;;;;3.10;1.00;;;2.00;89.00;;;;;;5042341;28;20053;-76
2023/02/25 04:23:07;;;;;;;2.97;1.13;;;2.00;89.60;;;;;;5042383;28;20026;-76
2023/02/25 04:25:33;;;;;;;2.38;1.17;;;2.00;88.60;;;;;;5037034;28;20044;-76
2023/02/25 04:27:59;;;;;;;3.60;1.13;;;2.00;89.60;;;;;;5037060;28;20031;-76
2023/02/25 04:30:25;;;;;;;4.55;1.27;;;1.90;89.80;;;;;;5041753;28;20251;-76
2023/02/25 04:32:50;;;;;;;4.30;0.93;;;1.90;89.20;;;;;;5048540;28;20084;-76
2023/02/25 04:35:16;;;;;;;3.40;1.00;;;1.90;89.80;;;;;;5049067;28;20033;-76
2023/02/25 04:37:42;;;;;;;4.50;1.10;;;1.90;89.60;;;;;;5053340;28;20347;-76
2023/02/25 04:40:17;;;;;;;1.15;0.80;;;1.90;89.70;;;;;;5056048;28;20052;-76
2023/02/25 04:42:43;;;;;;;2.40;0.98;;;1.80;89.70;;;;;;5055851;28;20005;-76
2023/02/25 04:45:10;;;;;;;4.70;1.25;;;1.90;89.80;;;;;;5051585;28;20034;-76
2023/02/25 04:47:36;;;;;;;4.35;1.10;;;1.90;89.70;;;;;;5040116;28;20387;-76
2023/02/25 04:50:02;;;;;;;3.85;1.13;;;1.90;89.50;;;;;;5053851;28;20044;-76
2023/02/25 04:52:28;;;;;;;3.90;0.95;;;1.90;90.00;;;;;;5049360;28;20025;-76
2023/02/25 04:54:54;;;;;;;5.28;1.17;;;1.90;89.50;;;;;;5045436;28;20045;-76
2023/02/25 04:57:19;;;;;;;1.60;1.00;;;1.90;90.00;;;;;;5039174;28;20386;-76
2023/02/25 04:59:45;;;;;;;5.45;1.00;;;1.80;90.00;;;;;;5038770;28;20035;-76
2023/02/25 05:02:10;;;;;;;2.47;0.88;;;1.80;89.50;;;;;;5044591;28;20060;-76
2023/02/25 05:04:37;;;;;;;2.90;1.10;;;1.80;90.30;;;;;;5045435;28;20029;-76
2023/02/25 05:07:04;;;;;;;1.83;0.85;;;1.80;90.10;;;;;;5036690;28;20030;-76
2023/02/25 05:09:29;;;;;;;3.75;0.93;;;1.80;90.20;;;;;;5043503;28;20585;-76
2023/02/25 05:11:55;;;;;;;4.20;1.05;;;1.80;90.00;;;;;;5043856;28;20079;-76
2023/02/25 05:14:20;;;;;;;2.17;0.70;;;1.80;89.90;;;;;;5066482;28;20032;-76
2023/02/25 05:16:46;;;;;;;3.15;1.00;;;1.80;89.90;;;;;;5052411;28;20033;-76
2023/02/25 05:19:23;;;;;;;1.92;0.90;;;1.80;89.80;;;;;;5044540;28;20041;-76
2023/02/25 05:21:52;;;;;;;3.42;1.00;;;1.80;90.00;;;;;;5062512;28;20052;-76
2023/02/25 05:24:18;;;;;;;3.63;0.95;;;1.80;90.00;;;;;;5063541;28;20403;-76
2023/02/25 05:26:44;;;;;;;1.45;0.80;;;1.90;89.70;;;;;;5058078;28;20033;-76
2023/02/25 05:29:10;;;;;;;0.63;0.63;;;1.90;89.70;;;;;;5037633;28;20471;-72
2023/02/25 05:31:36;;;;;;;3.17;1.10;;;2.00;89.60;;;;;;5043874;28;20047;-72
2023/02/25 05:34:01;;;;;;;2.10;0.90;;;1.90;89.90;;;;;;5052266;28;20436;-72
2023/02/25 05:36:27;;;;;;;1.40;0.60;;;2.00;89.70;;;;;;5046069;28;20025;-75
2023/02/25 05:38:54;;;;;;;5.97;0.95;;;2.00;89.40;;;;;;5045814;28;20385;-72
2023/02/25 05:41:20;;;;;;;2.85;0.70;;;2.00;90.00;;;;;;5053230;28;20064;-72
2023/02/25 05:43:46;;;;;;;1.30;0.60;;;2.00;89.10;;;;;;5037735;28;20514;-73
2023/02/25 05:46:12;;;;;;;3.78;0.93;;;2.00;89.40;;;;;;5018604;28;20029;-73
2023/02/25 05:48:40;;;;;;;4.07;0.60;;;2.00;89.10;;;;;;5023935;28;20033;-73
2023/02/25 05:51:12;;;;;;;2.28;0.75;;;2.10;88.50;;;;;;5025680;28;20125;-73
2023/02/25 05:53:38;;;;;;;2.30;0.70;;;2.10;88.80;;;;;;5025887;28;20128;-72
2023/02/25 05:56:06;;;;;;;2.22;0.63;;;2.10;88.60;;;;;;5027764;28;20108;-73
2023/02/25 05:58:32;;;;;;;4.15;0.70;;;2.10;88.70;;;;;;5027379;28;20054;-73
2023/02/25 06:00:57;;;;;;;3.60;0.73;;;2.10;88.50;;;;;;5032532;28;20033;-72
2023/02/25 06:03:23;;;;;;;4.95;0.95;;;2.00;88.60;;;;;;5030053;28;20466;-72
2023/02/25 06:05:48;;;;;;;4.38;0.98;;;2.00;88.50;;;;;;5010875;28;20548;-73
2023/02/25 06:08:14;;;;;;;3.50;0.80;;;2.10;88.40;;;;;;5028086;28;20037;-72
2023/02/25 06:10:40;;;;;;;1.80;0.73;;;2.00;88.40;;;;;;5029290;28;20514;-72
2023/02/25 06:13:10;;;;;;;1.48;0.52;;;2.00;88.30;;;;;;5026194;28;20029;-73
2023/02/25 06:15:37;;;;;;;5.10;0.60;;;2.00;87.90;;;;;;5028367;28;20112;-75
2023/02/25 06:18:03;;;;;;;1.15;0.50;;;2.00;88.10;;;;;;5030390;28;20079;-72
2023/02/25 06:20:29;;;;;;;0.93;0.60;;;2.10;88.10;;;;;;5031745;28;20385;-72
2023/02/25 06:22:54;;;;;;;1.85;0.55;;;2.10;87.20;;;;;;5030430;28;20054;-72
2023/02/25 06:25:20;;;;;;;3.30;0.70;;;2.10;87.40;;;;;;5027618;28;20112;-72
2023/02/25 06:27:46;;;;;;;1.42;0.65;;;2.10;87.60;;;;;;5031587;28;20519;-72
2023/02/25 06:30:12;;;;;;;4.25;1.17;;;2.10;87.40;;;;;;5027380;28;20102;-73
2023/02/25 06:32:38;;;;;;;1.90;0.60;;;2.10;87.40;;;;;;5012239;28;20040;-75
2023/02/25 06:35:05;;;;;;;1.75;0.63;;;2.10;87.60;;;;;;5047323;28;20473;-74
2023/02/25 06:37:31;;;;;;;4.78;0.90;;;2.10;86.70;;;;;;5020172;28;20397;-75
2023/02/25 06:39:56;;;;;;;4.25;0.85;;;2.10;86.60;;;;;;5032891;28;20026;-76
2023/02/25 06:42:22;;;;;;;1.45;0.70;;;2.10;87.10;;;;;;5035231;28;20033;-75
2023/02/25 06:44:47;;;;;;;2.08;0.50;;;2.10;87.60;;;;;;5037411;28;20116;-74
2023/02/25 06:47:13;;;;;;;1.55;0.68;;;2.10;87.20;;;;;;5051299;28;20029;-74
2023/02/25 06:49:38;;;;;;;3.63;0.77;;;2.10;86.70;;;;;;5015149;28;20034;-74
2023/02/25 06:52:04;;;;;;;2.97;0.65;;;2.10;86.80;;;;;;5030163;28;20113;-74
2023/02/25 06:54:30;;;;;;;3.40;0.90;;;2.10;87.10;;;;;;5027921;28;20520;-74
2023/02/25 06:56:55;;;;;;;4.20;0.90;;;2.00;87.90;;;;;;5030545;28;20494;-74
2023/02/25 06:59:21;;;;;;;2.67;1.05;;;2.00;88.20;;;;;;5023164;28;20069;-74
2023/02/25 07:01:47;;;;;;;7.07;1.20;;;1.90;88.30;;;;;;5022277;28;20088;-74
2023/02/25 07:04:18;;;;;;;4.68;0.88;;;1.90;88.70;;;;;;5010796;28;20029;-74
2023/02/25 07:06:43;;;;;;;;;;;1.90;89.20;;;;;;5020723;28;20033;-74
2023/02/25 07:09:09;;;;;;;3.55;0.80;;;1.90;89.60;;;;;;5031351;28;20273;-74
2023/02/25 07:11:35;;;;;;;2.17;0.77;;;1.90;90.40;;;;;;5024749;28;20041;-74
2023/02/25 07:14:02;;;;;;;1.40;0.63;;;1.80;90.40;;;;;;5026154;28;20032;-74
2023/02/25 07:16:28;;;;;;;2.65;0.73;;;1.80;90.50;;;;;;5024777;28;20037;-73
2023/02/25 07:18:54;;;;;;;3.40;0.90;;;1.80;90.50;;;;;;5025482;28;20043;-73
2023/02/25 07:21:21;;;;;;;2.45;1.02;;;1.80;90.60;;;;;;5024712;28;20453;-73
2023/02/25 07:23:47;;;;;;;2.72;0.75;;;1.80;90.90;;;;;;5035317;28;20176;-72
2023/02/25 07:26:13;;;;;;;2.35;1.00;;;1.80;91.30;;;;;;5026352;28;20496;-73
2023/02/25 07:28:39;;;;;;;2.95;0.80;;;1.80;91.30;;;;;;5024030;28;20056;-71
2023/02/25 07:31:14;;;;;;;1.90;0.80;;;1.80;91.50;;;;;;5027691;28;20038;-73
2023/02/25 07:33:40;;;;;;;3.22;0.80;;;1.80;91.50;;;;;;5017576;28;20041;-74
2023/02/25 07:36:06;;;;;;;3.00;0.93;;;1.70;92.10;;;;;;5024563;28;20030;-74
2023/02/25 07:38:32;;;;;;;4.18;0.77;;;1.70;92.80;;;;;;5028937;28;20022;-74
2023/02/25 07:41:10;;;;;;;1.27;0.73;;;1.60;93.00;;;;;;5030512;28;20052;-74
2023/02/25 07:43:35;;;;;;;2.42;0.73;;;1.60;93.30;;;;;;5011814;28;20463;-74
2023/02/25 07:46:01;;;;;;;4.40;0.68;;;1.60;93.60;;;;;;5032608;28;20036;-74
2023/02/25 07:48:27;;;;;;;2.92;0.80;;;1.60;93.00;;;;;;5024207;28;20068;-74
2023/02/25 07:50:54;;;;;;;3.35;0.60;;;1.70;93.10;;;;;;5027213;28;20080;-74
2023/02/25 07:53:21;;;;;;;2.50;1.00;;;1.70;93.00;;;;;;5042135;28;20038;-74
2023/02/25 07:55:47;;;;;;;2.97;0.82;;;1.70;92.50;;;;;;5028943;28;20025;-74
2023/02/25 07:58:13;;;;;;;4.35;0.85;;;1.80;92.40;;;;;;5020076;28;20088;-74
2023/02/25 08:00:40;;;;;;;3.67;0.75;;;1.90;92.40;;;;;;5024399;28;20041;-74
2023/02/25 08:03:06;;;;;;;2.72;0.77;;;1.90;91.60;;;;;;5021949;28;20036;-74
2023/02/25 08:05:36;;;;;;;5.32;0.65;;;1.90;91.80;;;;;;5028375;28;20040;-73
2023/02/25 08:08:02;;;;;;;3.10;0.75;;;1.90;90.60;;;;;;5027815;28;20060;-73
2023/02/25 08:10:27;;;;;;;1.50;0.65;;;1.90;90.90;;;;;;5019230;28;20041;-72
2023/02/25 08:12:53;;;;;;;3.13;0.75;;;2.00;90.80;;;;;;5020280;28;20040;-76
2023/02/25 08:15:19;;;;;;;4.03;1.40;;;2.00;90.10;;;;;;5021008;28;20045;-74
2023/02/25 08:17:44;;;;;;;1.92;0.75;;;2.10;90.00;;;;;;5024387;28;20418;-74
2023/02/25 08:20:11;;;;;;;3.03;0.85;;;2.10;89.10;;;;;;5027815;28;20719;-74
2023/02/25 08:22:37;;;;;;;1.65;0.70;;;2.10;87.80;;;;;;5005390;28;20471;-73
2023/02/25 08:25:03;;;;;;;3.50;0.77;;;2.20;88.90;;;;;;5022449;28;20034;-74
2023/02/25 08:27:29;;;;;;;1.77;0.60;;;2.20;87.70;;;;;;5016652;28;20029;-73
2023/02/25 08:29:56;;;;;;;3.13;0.50;;;2.30;87.10;;;;;;5028139;28;20280;-73
2023/02/25 08:32:23;;;;;;;1.10;0.70;;;2.30;87.30;;;;;;5024136;28;20535;-74
2023/02/25 08:34:50;;;;;;;0.77;0.63;;;2.30;86.20;;;;;;5034580;28;20033;-74
2023/02/25 08:37:15;;;;;;;3.55;0.68;;;2.30;86.70;;;;;;5024728;28;20033;-73
2023/02/25 08:39:41;;;;;;;2.00;0.80;;;2.40;85.40;;;;;;5022620;28;20041;-74
2023/02/25 08:42:06;;;;;;;5.20;0.98;;;2.40;86.20;;;;;;5025781;28;20038;-72
2023/02/25 08:44:32;;;;;;;2.53;0.75;;;2.60;85.40;;;;;;5027058;28;20358;-72
2023/02/25 08:47:00;;;;;;;2.08;0.75;;;2.50;83.80;;;;;;5030139;28;20033;-73
2023/02/25 08:49:26;;;;;;;4.63;0.90;;;2.50;84.40;;;;;;5028197;28;20034;-73
2023/02/25 08:51:51;;;;;;;2.85;0.85;;;2.50;84.10;;;;;;5027234;28;20381;-74
2023/02/25 08:54:16;;;;;;;3.60;0.55;;;2.50;84.90;;;;;;5008350;28;20032;-73
2023/02/25 08:56:46;;;;;;;4.45;0.80;;;2.40;84.30;;;;;;5027514;28;20037;-73
2023/02/25 08:59:14;;;;;;;2.30;0.70;;;2.30;84.50;;;;;;5026553;28;20036;-75
2023/02/25 09:01:45;;;;;;;1.17;0.70;;;2.40;85.30;;;;;;5006312;28;20025;-73
2023/02/25 09:04:20;;;;;;;4.05;0.68;;;2.40;85.30;;;;;;5022513;28;20029;-73
2023/02/25 09:06:46;;;;;;;2.83;1.02;;;2.40;85.10;;;;;;5017093;28;20503;-73
2023/02/25 09:09:12;;;;;;;3.60;0.82;;;2.60;85.30;;;;;;5033784;28;20029;-73
2023/02/25 09:11:39;;;;;;;4.38;0.93;;;2.60;84.90;;;;;;5028717;28;20355;-73
2023/02/25 09:14:04;;;;;;;3.08;0.65;;;2.70;85.90;;;;;;5027772;28;22201;-73
2023/02/25 09:16:30;;;;;;;4.70;0.60;;;2.70;83.80;;;;;;5019639;28;20029;-73
2023/02/25 09:18:55;;;;;;;3.22;0.52;;;2.80;83.70;;;;;;5008812;28;20053;-73
2023/02/25 09:21:22;;;;;;;5.80;1.10;;;2.80;84.80;;;;;;5027386;28;20037;-73
2023/02/25 09:23:50;;;;;;;2.13;0.70;;;2.70;82.90;;;;;;5026319;28;20038;-73
2023/02/25 09:26:16;;;;;;;2.65;0.70;;;2.90;84.70;;;;;;5023809;28;20352;-73
2023/02/25 09:28:41;;;;;;;0.80;0.60;;;2.70;82.50;;;;;;5023427;28;26316;-73
2023/02/25 09:31:07;;;;;;;2.20;0.50;;;2.70;82.40;;;;;;5020639;28;20092;-72
2023/02/25 09:33:34;;;;;;;1.73;0.85;;;2.70;81.90;;;;;;5026264;28;20034;-72
2023/02/25 09:36:07;;;;;;;1.50;0.75;;;2.80;82.80;;;;;;5023971;28;20026;-72
2023/02/25 09:38:33;;;;;;;2.85;0.80;;;2.80;81.40;;;;;;5017739;28;20417;-72
2023/02/25 09:40:58;;;;;;;1.58;0.50;;;3.00;81.60;;;;;;5025805;28;20126;-72
2023/02/25 09:43:28;;;;;;;2.83;0.63;;;3.20;83.10;;;;;;5025768;28;20114;-72
2023/02/25 09:46:04;;;;;;;1.75;0.80;;;3.10;80.80;;;;;;5007843;28;20458;-72
2023/02/25 09:48:38;;;;;;;2.35;1.23;;;2.90;80.20;;;;;;5027288;28;20096;-73
2023/02/25 09:51:15;;;;;;;4.57;1.10;;;2.90;81.00;;;;;;5024322;28;20029;-73
2023/02/25 09:53:46;;;;;;;2.30;0.80;;;3.00;80.50;;;;;;5019910;28;20033;-73
2023/02/25 09:56:14;;;;;;;6.32;1.00;;;3.10;81.70;;;;;;5025309;28;20057;-73
2023/02/25 09:58:45;;;;;;;3.92;0.82;;;3.10;80.90;;;;;;5024697;28;20033;-73
2023/02/25 10:01:11;;;;;;;1.58;0.65;;;3.10;80.20;;;;;;5026584;28;20867;-71
2023/02/25 10:03:58;;;;;;;2.50;1.00;;;3.00;80.00;;;;;;5021412;28;20167;-73
2023/02/25 10:06:38;;;;;;;6.60;1.30;;;3.20;80.00;;;;;;5017642;28;20030;-73
2023/02/25 10:09:33;;;;;;;4.32;0.90;;;3.30;80.30;;;;;;5020374;28;20109;-73
2023/02/25 10:12:12;;;;;;;1.80;0.55;;;3.40;79.30;;;;;;5024461;28;20025;-74
2023/02/25 10:15:17;;;;;;;4.15;1.15;;;3.30;77.70;;;;;;5038560;28;20025;-73
2023/02/25 10:18:19;;;;;;;1.70;0.85;;;3.60;79.00;;;;;;4996536;28;20128;-73
2023/02/25 10:21:14;;;;;;;4.80;1.25;;;3.60;78.00;;;;;;5023786;28;20052;-74
2023/02/25 10:23:58;;;;;;;2.75;0.82;;;3.60;77.80;;;;;;5039340;28;20393;-74
2023/02/25 10:26:31;;;;;;;3.60;1.08;;;3.70;77.70;;;;;;5026821;28;20116;-73
2023/02/25 10:29:05;;;;;;;1.15;0.52;;;4.00;79.60;;;;;;5011447;28;20132;-73
2023/02/25 10:31:31;;;;;;;5.28;0.82;;;3.90;77.00;;;;;;5024653;28;20077;-73
2023/02/25 10:34:06;;;;;;;4.03;0.90;;;3.50;76.80;;;;;;5037699;28;20036;-77
2023/02/25 10:36:38;;;;;;;4.50;0.60;;;3.50;77.60;;;;;;5040268;28;20037;-72
2023/02/25 10:39:04;;;;;;;3.60;0.80;;;3.50;77.30;;;;;;5025119;28;20037;-71
2023/02/25 10:41:29;;;;;;;3.08;0.82;;;3.60;76.80;;;;;;5030874;28;20056;-72
2023/02/25 10:43:55;;;;;;;6.00;1.00;;;3.40;76.70;;;;;;5028982;28;20041;-72
2023/02/25 10:46:44;;;;;;;2.08;0.93;;;3.30;76.80;;;;;;5034797;28;20038;-72
2023/02/25 10:49:24;;;;;;;3.97;0.93;;;4.00;77.30;;;;;;5027923;28;20048;-72
2023/02/25 10:52:18;;;;;;;4.30;1.02;;;4.40;76.20;;;;;;5020452;28;20057;-72
2023/02/25 10:54:49;;;;;;;3.05;0.90;;;4.50;73.90;;;;;;5025575;28;20030;-72
2023/02/25 10:57:25;;;;;;;3.42;0.70;;;4.50;74.10;;;;;;5022681;28;20036;-73
2023/02/25 11:00:12;;;;;;;1.38;0.77;;;4.00;73.10;;;;;;5023159;28;20036;-71
2023/02/25 11:02:42;;;;;;;5.15;1.20;;;3.80;74.60;;;;;;5025920;28;20037;-71
2023/02/25 11:05:35;;;;;;;4.55;0.80;;;3.50;73.90;;;;;;5025109;28;20033;-71
2023/02/25 11:08:01;;;;;;;3.83;0.82;;;3.50;73.50;;;;;;5032503;28;20214;-72
2023/02/25 11:10:26;;;;;;;2.45;0.77;;;3.60;75.60;;;;;;5018635;28;20026;-71
2023/02/25 11:12:55;;;;;;;3.67;0.90;;;3.50;74.60;;;;;;5019418;28;20496;-71
2023/02/25 11:15:23;;;;;;;2.55;0.73;;;3.50;74.70;;;;;;5024388;28;20056;-71
2023/02/25 11:17:49;;;;;;;3.92;0.80;;;3.10;73.80;;;;;;5023495;28;20037;-71
2023/02/25 11:20:23;;;;;;;5.10;0.80;;;2.90;74.70;;;;;;5020428;28;20475;-72
2023/02/25 11:22:54;;;;;;;7.63;1.67;;;2.80;75.30;;;;;;5025448;28;20036;-72
2023/02/25 11:25:31;;;;;;;4.35;1.17;;;2.90;77.80;;;;;;5049062;28;20128;-72
2023/02/25 11:27:57;;;;;;;6.25;1.70;;;3.10;77.30;;;;;;5037520;28;20068;-72
2023/02/25 11:30:37;;;;;;;4.28;1.50;;;3.10;77.00;;;;;;5034150;28;20046;-72
2023/02/25 11:33:16;;;;;;;5.25;1.80;;;3.10;76.60;;;;;;5015109;28;20056;-71
2023/02/25 11:35:42;;;;;;;8.98;1.40;;;3.00;77.40;;;;;;5031082;28;20040;-72
2023/02/25 11:38:30;;;;;;;5.82;1.38;;;3.00;77.60;;;;;;5032860;28;20458;-72
2023/02/25 11:40:56;;;;;;;7.55;2.10;;;3.00;78.00;;;;;;5034657;28;20033;-72
2023/02/25 11:43:32;;;;;;;8.43;1.80;;;3.20;77.30;;;;;;5030238;28;20497;-71
2023/02/25 11:46:02;;;;;;;3.83;1.30;;;3.50;77.70;;;;;;5037854;28;20030;-72
2023/02/25 11:48:37;;;;;;;5.82;1.35;;;3.60;75.30;;;;;;5048332;28;20044;-71
2023/02/25 11:51:45;;;;;;;6.75;1.60;;;3.80;77.30;;;;;;5048548;28;20029;-72
2023/02/25 11:54:25;;;;;;;7.38;1.30;;;4.20;77.20;;;;;;5050195;28;20033;-72
2023/02/25 11:56:59;;;;;;;4.40;1.45;;;4.70;74.60;;;;;;5033877;28;20021;-72
2023/02/25 11:59:37;;;;;;;3.60;1.02;;;4.80;72.80;;;;;;5036894;28;20350;-72
2023/02/25 12:02:19;;;;;;;8.15;1.30;;;4.30;74.70;;;;;;5031967;28;20025;-72
2023/02/25 12:05:00;;;;;;;4.43;1.33;;;4.10;73.90;;;;;;5044514;28;20101;-72
2023/02/25 12:07:53;;;;;;;5.60;1.38;;;4.00;74.00;;;;;;5038141;28;20025;-72
2023/02/25 12:11:00;;;;;;;4.45;1.27;;;4.50;73.90;;;;;;5036510;28;20040;-72
2023/02/25 12:13:58;;;;;;;7.63;1.30;;;4.60;71.50;;;;;;4964228;28;20039;-72
2023/02/25 12:16:44;;;;;;;7.60;1.75;;;4.90;70.00;;;;;;5040375;28;20373;-73
2023/02/25 12:19:40;;;;;;;9.80;1.77;;;5.00;69.10;;;;;;5037967;28;20384;-72
2023/02/25 12:22:52;;;;;;;2.72;0.90;;;5.90;71.70;;;;;;5024100;28;20474;-73
2023/02/25 12:25:56;;;;;;;7.07;1.17;;;5.80;70.90;;;;;;5018227;28;20033;-73
2023/02/25 12:28:52;;;;;;;4.57;1.20;;;5.10;68.30;;;;;;4996776;28;20485;-73
2023/02/25 12:31:39;;;;;;;1.98;0.90;;;4.90;71.50;;;;;;5035600;28;20098;-72
2023/02/25 12:34:34;;;;;;;2.88;0.80;;;4.70;71.40;;;;;;5051653;28;20087;-73
2023/02/25 12:37:23;;;;;;;2.83;0.82;;;5.00;70.80;;;;;;5008254;28;20573;-72
2023/02/25 12:39:52;;;;;;;4.72;0.93;;;5.50;67.10;;;;;;5034128;28;20061;-73
2023/02/25 12:42:46;;;;;;;3.35;1.20;;;5.20;68.70;;;;;;5035225;28;20043;-73
2023/02/25 12:45:39;;;;;;;5.35;0.90;;;5.90;67.40;;;;;;5038986;28;20056;-73
2023/02/25 12:48:34;;;;;;;3.58;1.13;;;6.40;64.80;;;;;;5046955;28;20037;-73
2023/02/25 12:51:37;;;;;;;2.28;0.82;;;5.60;65.70;;;;;;5050531;28;20115;-72
2023/02/25 12:54:24;;;;;;;6.68;1.50;;;5.40;65.10;;;;;;5051034;28;20029;-72
2023/02/25 12:57:11;;;;;;;5.07;1.15;;;5.70;64.60;;;;;;5020629;28;20565;-73
2023/02/25 13:00:09;;;;;;;5.60;1.67;;;6.10;65.00;;;;;;5020332;28;20036;-73
2023/02/25 13:02:40;;;;;;;5.20;1.48;;;6.50;61.60;;;;;;5029392;28;20207;-73
2023/02/25 13:05:45;;;;;;;5.88;1.08;;;7.30;64.00;;;;;;5010107;28;20051;-73
2023/02/25 13:08:41;;;;;;;4.15;1.02;;;7.60;59.90;;;;;;5029992;28;20099;-73
2023/02/25 13:11:47;;;;;;;2.95;1.00;;;7.60;55.20;;;;;;5021420;28;20091;-74
2023/02/25 13:14:23;;;;;;;3.83;1.02;;;7.90;54.60;;;;;;4996994;28;20045;-73
2023/02/25 13:17:11;;;;;;;4.50;1.27;;;7.90;56.40;;;;;;5034805;28;20037;-74
2023/02/25 13:20:21;;;;;;;5.18;1.55;;;8.10;53.70;;;;;;5029340;28;20033;-73
2023/02/25 13:23:17;;;;;;;5.97;1.10;;;7.50;54.00;;;;;;4964820;28;20050;-74